sensor_id;sensor_type;location;lat;lon;timestamp;P1;durP1;ratioP1;P2;durP2;ratioP2
48215;SDS011;34005;48.844;10.098;2022-08-24T00:00:37;4.75;;;3.22;;
48215;SDS011;34005;48.844;10.098;2022-08-24T00:03:04;3.00;;;2.53;;
48215;SDS011;34005;48.844;10.098;2022-08-24T00:08:04;3.85;;;2.65;;
48215;SDS011;34005;48.844;10.098;2022-08-24T00:10:33;3.10;;;2.80;;
48215;SDS011;34005;48.844;10.098;2022-08-24T00:13:01;3.20;;;2.90;;
48215;SDS011;34005;48.844;10.098;2022-08-24T00:15:28;4.63;;;3.10;;
48215;SDS011;34005;48.844;10.098;2022-08-24T00:17:56;2.83;;;2.63;;
48215;SDS011;34005;48.844;10.098;2022-08-24T00:20:23;2.90;;;2.60;;
48215;SDS011;34005;48.844;10.098;2022-08-24T00:22:51;4.50;;;2.95;;
48215;SDS011;34005;48.844;10.098;2022-08-24T00:25:19;3.08;;;2.78;;
48215;SDS011;34005;48.844;10.098;2022-08-24T00:27:48;3.55;;;3.13;;
48215;SDS011;34005;48.844;10.098;2022-08-24T00:30:17;3.22;;;2.88;;
48215;SDS011;34005;48.844;10.098;2022-08-24T00:32:46;4.13;;;3.38;;
48215;SDS011;34005;48.844;10.098;2022-08-24T00:35:14;4.47;;;2.60;;
48215;SDS011;34005;48.844;10.098;2022-08-24T00:37:45;3.78;;;2.53;;
48215;SDS011;34005;48.844;10.098;2022-08-24T00:40:16;3.20;;;2.70;;
48215;SDS011;34005;48.844;10.098;2022-08-24T00:42:48;4.30;;;2.90;;
48215;SDS011;34005;48.844;10.098;2022-08-24T00:45:17;3.28;;;2.97;;
48215;SDS011;34005;48.844;10.098;2022-08-24T00:47:48;3.25;;;2.95;;
48215;SDS011;34005;48.844;10.098;2022-08-24T00:50:21;4.10;;;3.33;;
48215;SDS011;34005;48.844;10.098;2022-08-24T00:52:52;3.13;;;2.83;;
48215;SDS011;34005;48.844;10.098;2022-08-24T00:55:25;6.25;;;3.15;;
48215;SDS011;34005;48.844;10.098;2022-08-24T00:57:59;4.80;;;2.60;;
48215;SDS011;34005;48.844;10.098;2022-08-24T01:00:32;2.72;;;2.50;;
48215;SDS011;34005;48.844;10.098;2022-08-24T01:03:03;2.75;;;2.55;;
48215;SDS011;34005;48.844;10.098;2022-08-24T01:05:32;3.15;;;2.88;;
48215;SDS011;34005;48.844;10.098;2022-08-24T01:08:02;4.68;;;2.50;;
48215;SDS011;34005;48.844;10.098;2022-08-24T01:10:33;4.35;;;3.03;;
48215;SDS011;34005;48.844;10.098;2022-08-24T01:13:05;3.75;;;3.05;;
48215;SDS011;34005;48.844;10.098;2022-08-24T01:15:36;2.90;;;2.60;;
48215;SDS011;34005;48.844;10.098;2022-08-24T01:18:04;2.90;;;2.38;;
48215;SDS011;34005;48.844;10.098;2022-08-24T01:20:55;4.28;;;2.10;;
48215;SDS011;34005;48.844;10.098;2022-08-24T01:23:35;5.15;;;1.85;;
48215;SDS011;34005;48.844;10.098;2022-08-24T01:26:06;2.58;;;1.83;;
48215;SDS011;34005;48.844;10.098;2022-08-24T01:28:37;2.85;;;1.83;;
48215;SDS011;34005;48.844;10.098;2022-08-24T01:31:06;3.58;;;1.95;;
48215;SDS011;34005;48.844;10.098;2022-08-24T01:33:34;1.73;;;1.60;;
48215;SDS011;34005;48.844;10.098;2022-08-24T01:36:04;1.45;;;1.35;;
48215;SDS011;34005;48.844;10.098;2022-08-24T01:38:37;2.20;;;1.60;;
48215;SDS011;34005;48.844;10.098;2022-08-24T01:41:04;1.80;;;1.70;;
48215;SDS011;34005;48.844;10.098;2022-08-24T01:43:33;2.53;;;1.75;;
48215;SDS011;34005;48.844;10.098;2022-08-24T01:46:02;3.05;;;1.92;;
48215;SDS011;34005;48.844;10.098;2022-08-24T01:48:30;3.42;;;1.90;;
48215;SDS011;34005;48.844;10.098;2022-08-24T01:50:58;4.85;;;2.38;;
48215;SDS011;34005;48.844;10.098;2022-08-24T01:53:25;1.75;;;1.65;;
48215;SDS011;34005;48.844;10.098;2022-08-24T01:55:55;1.80;;;1.70;;
48215;SDS011;34005;48.844;10.098;2022-08-24T01:58:22;3.78;;;2.10;;
48215;SDS011;34005;48.844;10.098;2022-08-24T02:00:50;3.28;;;1.90;;
48215;SDS011;34005;48.844;10.098;2022-08-24T02:03:17;3.10;;;2.00;;
48215;SDS011;34005;48.844;10.098;2022-08-24T02:05:52;3.03;;;2.50;;
48215;SDS011;34005;48.844;10.098;2022-08-24T02:08:20;2.70;;;2.50;;
48215;SDS011;34005;48.844;10.098;2022-08-24T02:10:47;3.65;;;2.25;;
48215;SDS011;34005;48.844;10.098;2022-08-24T02:13:23;2.75;;;2.55;;
48215;SDS011;34005;48.844;10.098;2022-08-24T02:15:53;2.78;;;2.35;;
48215;SDS011;34005;48.844;10.098;2022-08-24T02:18:21;2.15;;;1.92;;
48215;SDS011;34005;48.844;10.098;2022-08-24T02:20:49;2.55;;;2.20;;
48215;SDS011;34005;48.844;10.098;2022-08-24T02:23:16;3.20;;;2.20;;
48215;SDS011;34005;48.844;10.098;2022-08-24T02:25:45;2.47;;;2.28;;
48215;SDS011;34005;48.844;10.098;2022-08-24T02:28:13;2.15;;;1.98;;
48215;SDS011;34005;48.844;10.098;2022-08-24T02:30:42;1.67;;;1.48;;
48215;SDS011;34005;48.844;10.098;2022-08-24T02:33:10;4.15;;;2.25;;
48215;SDS011;34005;48.844;10.098;2022-08-24T02:35:38;1.83;;;1.73;;
48215;SDS011;34005;48.844;10.098;2022-08-24T02:38:06;3.03;;;2.15;;
48215;SDS011;34005;48.844;10.098;2022-08-24T02:40:34;4.45;;;2.60;;
48215;SDS011;34005;48.844;10.098;2022-08-24T02:43:02;5.68;;;2.58;;
48215;SDS011;34005;48.844;10.098;2022-08-24T02:45:31;3.20;;;2.47;;
48215;SDS011;34005;48.844;10.098;2022-08-24T02:48:00;2.63;;;2.10;;
48215;SDS011;34005;48.844;10.098;2022-08-24T02:50:27;5.57;;;2.58;;
48215;SDS011;34005;48.844;10.098;2022-08-24T02:52:55;3.60;;;2.42;;
48215;SDS011;34005;48.844;10.098;2022-08-24T02:55:22;1.80;;;1.70;;
48215;SDS011;34005;48.844;10.098;2022-08-24T02:57:50;2.50;;;2.30;;
48215;SDS011;34005;48.844;10.098;2022-08-24T03:00:18;2.75;;;2.08;;
48215;SDS011;34005;48.844;10.098;2022-08-24T03:02:47;4.75;;;2.08;;
48215;SDS011;34005;48.844;10.098;2022-08-24T03:05:16;4.57;;;2.42;;
48215;SDS011;34005;48.844;10.098;2022-08-24T03:07:44;2.80;;;1.70;;
48215;SDS011;34005;48.844;10.098;2022-08-24T03:10:12;2.17;;;1.92;;
48215;SDS011;34005;48.844;10.098;2022-08-24T03:12:40;2.53;;;1.90;;
48215;SDS011;34005;48.844;10.098;2022-08-24T03:15:08;4.20;;;2.40;;
48215;SDS011;34005;48.844;10.098;2022-08-24T03:17:37;2.17;;;1.70;;
48215;SDS011;34005;48.844;10.098;2022-08-24T03:20:09;2.17;;;1.92;;
48215;SDS011;34005;48.844;10.098;2022-08-24T03:22:43;5.53;;;2.15;;
48215;SDS011;34005;48.844;10.098;2022-08-24T03:25:11;2.10;;;2.00;;
48215;SDS011;34005;48.844;10.098;2022-08-24T03:27:40;5.05;;;2.08;;
48215;SDS011;34005;48.844;10.098;2022-08-24T03:30:10;3.50;;;2.17;;
48215;SDS011;34005;48.844;10.098;2022-08-24T03:32:39;4.70;;;2.60;;
48215;SDS011;34005;48.844;10.098;2022-08-24T03:35:07;3.38;;;2.65;;
48215;SDS011;34005;48.844;10.098;2022-08-24T03:37:36;2.95;;;2.65;;
48215;SDS011;34005;48.844;10.098;2022-08-24T03:40:07;2.38;;;2.17;;
48215;SDS011;34005;48.844;10.098;2022-08-24T03:42:49;4.40;;;2.15;;
48215;SDS011;34005;48.844;10.098;2022-08-24T03:45:18;3.05;;;2.20;;
48215;SDS011;34005;48.844;10.098;2022-08-24T03:47:46;2.80;;;2.30;;
48215;SDS011;34005;48.844;10.098;2022-08-24T03:50:14;3.35;;;2.83;;
48215;SDS011;34005;48.844;10.098;2022-08-24T03:52:41;4.40;;;2.70;;
48215;SDS011;34005;48.844;10.098;2022-08-24T03:55:10;3.00;;;2.70;;
48215;SDS011;34005;48.844;10.098;2022-08-24T03:57:38;2.55;;;2.30;;
48215;SDS011;34005;48.844;10.098;2022-08-24T04:00:07;3.60;;;2.75;;
48215;SDS011;34005;48.844;10.098;2022-08-24T04:02:37;3.22;;;2.30;;
48215;SDS011;34005;48.844;10.098;2022-08-24T04:05:05;3.42;;;2.30;;
48215;SDS011;34005;48.844;10.098;2022-08-24T04:07:33;2.80;;;1.92;;
48215;SDS011;34005;48.844;10.098;2022-08-24T04:10:00;2.90;;;2.47;;
48215;SDS011;34005;48.844;10.098;2022-08-24T04:12:29;6.32;;;2.38;;
48215;SDS011;34005;48.844;10.098;2022-08-24T04:14:57;2.70;;;2.35;;
48215;SDS011;34005;48.844;10.098;2022-08-24T04:17:24;3.00;;;2.70;;
48215;SDS011;34005;48.844;10.098;2022-08-24T04:19:52;3.78;;;2.78;;
48215;SDS011;34005;48.844;10.098;2022-08-24T04:22:27;3.72;;;2.78;;
48215;SDS011;34005;48.844;10.098;2022-08-24T04:24:56;3.65;;;3.35;;
48215;SDS011;34005;48.844;10.098;2022-08-24T04:27:24;2.63;;;2.40;;
48215;SDS011;34005;48.844;10.098;2022-08-24T04:29:53;3.95;;;2.92;;
48215;SDS011;34005;48.844;10.098;2022-08-24T04:32:20;2.85;;;2.53;;
48215;SDS011;34005;48.844;10.098;2022-08-24T04:34:48;3.63;;;2.40;;
48215;SDS011;34005;48.844;10.098;2022-08-24T04:37:15;4.32;;;2.58;;
48215;SDS011;34005;48.844;10.098;2022-08-24T04:39:50;3.33;;;2.55;;
48215;SDS011;34005;48.844;10.098;2022-08-24T04:42:19;3.58;;;2.60;;
48215;SDS011;34005;48.844;10.098;2022-08-24T04:44:47;5.28;;;3.17;;
48215;SDS011;34005;48.844;10.098;2022-08-24T04:47:16;8.95;;;3.20;;
48215;SDS011;34005;48.844;10.098;2022-08-24T04:49:44;3.78;;;2.53;;
48215;SDS011;34005;48.844;10.098;2022-08-24T04:52:12;3.05;;;2.67;;
48215;SDS011;34005;48.844;10.098;2022-08-24T04:54:40;3.65;;;3.03;;
48215;SDS011;34005;48.844;10.098;2022-08-24T04:57:07;4.85;;;2.47;;
48215;SDS011;34005;48.844;10.098;2022-08-24T04:59:39;4.55;;;3.35;;
48215;SDS011;34005;48.844;10.098;2022-08-24T05:02:09;3.47;;;2.70;;
48215;SDS011;34005;48.844;10.098;2022-08-24T05:04:38;6.40;;;3.25;;
48215;SDS011;34005;48.844;10.098;2022-08-24T05:07:05;5.05;;;3.30;;
48215;SDS011;34005;48.844;10.098;2022-08-24T05:09:33;3.30;;;3.00;;
48215;SDS011;34005;48.844;10.098;2022-08-24T05:12:01;26.75;;;16.48;;
48215;SDS011;34005;48.844;10.098;2022-08-24T05:14:29;13.00;;;7.22;;
48215;SDS011;34005;48.844;10.098;2022-08-24T05:16:56;6.78;;;4.47;;
48215;SDS011;34005;48.844;10.098;2022-08-24T05:19:24;3.72;;;3.33;;
48215;SDS011;34005;48.844;10.098;2022-08-24T05:21:53;4.50;;;3.78;;
48215;SDS011;34005;48.844;10.098;2022-08-24T05:24:21;6.20;;;3.17;;
48215;SDS011;34005;48.844;10.098;2022-08-24T05:26:48;5.82;;;3.17;;
48215;SDS011;34005;48.844;10.098;2022-08-24T05:29:18;6.35;;;3.42;;
48215;SDS011;34005;48.844;10.098;2022-08-24T05:31:46;3.53;;;2.83;;
48215;SDS011;34005;48.844;10.098;2022-08-24T05:34:14;4.60;;;3.13;;
48215;SDS011;34005;48.844;10.098;2022-08-24T05:36:41;5.88;;;3.33;;
48215;SDS011;34005;48.844;10.098;2022-08-24T05:39:12;5.43;;;3.20;;
48215;SDS011;34005;48.844;10.098;2022-08-24T05:41:40;3.97;;;3.53;;
48215;SDS011;34005;48.844;10.098;2022-08-24T05:44:10;5.90;;;3.65;;
48215;SDS011;34005;48.844;10.098;2022-08-24T05:46:38;7.20;;;4.47;;
48215;SDS011;34005;48.844;10.098;2022-08-24T05:49:06;5.88;;;4.95;;
48215;SDS011;34005;48.844;10.098;2022-08-24T05:51:34;8.52;;;4.88;;
48215;SDS011;34005;48.844;10.098;2022-08-24T05:54:02;6.20;;;4.30;;
48215;SDS011;34005;48.844;10.098;2022-08-24T05:56:31;7.20;;;5.03;;
48215;SDS011;34005;48.844;10.098;2022-08-24T05:58:59;6.18;;;4.57;;
48215;SDS011;34005;48.844;10.098;2022-08-24T06:01:27;5.47;;;4.97;;
48215;SDS011;34005;48.844;10.098;2022-08-24T06:03:55;6.95;;;5.50;;
48215;SDS011;34005;48.844;10.098;2022-08-24T06:06:23;6.63;;;5.85;;
48215;SDS011;34005;48.844;10.098;2022-08-24T06:08:52;5.70;;;4.43;;
48215;SDS011;34005;48.844;10.098;2022-08-24T06:11:22;6.57;;;3.95;;
48215;SDS011;34005;48.844;10.098;2022-08-24T06:13:58;5.47;;;3.50;;
48215;SDS011;34005;48.844;10.098;2022-08-24T06:16:33;6.60;;;3.72;;
48215;SDS011;34005;48.844;10.098;2022-08-24T06:19:01;5.20;;;3.80;;
48215;SDS011;34005;48.844;10.098;2022-08-24T06:21:30;8.38;;;3.60;;
48215;SDS011;34005;48.844;10.098;2022-08-24T06:23:57;4.03;;;3.70;;
48215;SDS011;34005;48.844;10.098;2022-08-24T06:26:26;3.97;;;3.55;;
48215;SDS011;34005;48.844;10.098;2022-08-24T06:29:17;5.60;;;3.95;;
48215;SDS011;34005;48.844;10.098;2022-08-24T06:31:46;5.90;;;4.25;;
48215;SDS011;34005;48.844;10.098;2022-08-24T06:34:20;3.95;;;3.22;;
48215;SDS011;34005;48.844;10.098;2022-08-24T06:36:49;4.80;;;3.78;;
48215;SDS011;34005;48.844;10.098;2022-08-24T06:39:16;3.63;;;3.15;;
48215;SDS011;34005;48.844;10.098;2022-08-24T06:41:44;4.80;;;3.58;;
48215;SDS011;34005;48.844;10.098;2022-08-24T06:44:12;7.90;;;3.90;;
48215;SDS011;34005;48.844;10.098;2022-08-24T06:46:41;6.38;;;3.67;;
48215;SDS011;34005;48.844;10.098;2022-08-24T06:49:08;4.32;;;3.90;;
48215;SDS011;34005;48.844;10.098;2022-08-24T06:51:36;5.72;;;3.60;;
48215;SDS011;34005;48.844;10.098;2022-08-24T06:54:04;3.58;;;3.25;;
48215;SDS011;34005;48.844;10.098;2022-08-24T06:56:32;4.65;;;4.25;;
48215;SDS011;34005;48.844;10.098;2022-08-24T06:59:01;7.00;;;4.25;;
48215;SDS011;34005;48.844;10.098;2022-08-24T07:01:29;4.78;;;4.38;;
48215;SDS011;34005;48.844;10.098;2022-08-24T07:03:59;6.07;;;5.00;;
48215;SDS011;34005;48.844;10.098;2022-08-24T07:06:26;6.28;;;4.82;;
48215;SDS011;34005;48.844;10.098;2022-08-24T07:08:54;10.18;;;4.68;;
48215;SDS011;34005;48.844;10.098;2022-08-24T07:11:22;6.70;;;4.97;;
48215;SDS011;34005;48.844;10.098;2022-08-24T07:13:50;6.68;;;4.78;;
48215;SDS011;34005;48.844;10.098;2022-08-24T07:16:18;7.78;;;4.38;;
48215;SDS011;34005;48.844;10.098;2022-08-24T07:18:47;5.10;;;4.30;;
48215;SDS011;34005;48.844;10.098;2022-08-24T07:21:17;6.85;;;3.90;;
48215;SDS011;34005;48.844;10.098;2022-08-24T07:23:45;5.97;;;4.00;;
48215;SDS011;34005;48.844;10.098;2022-08-24T07:26:15;5.32;;;3.80;;
48215;SDS011;34005;48.844;10.098;2022-08-24T07:28:47;6.15;;;3.35;;
48215;SDS011;34005;48.844;10.098;2022-08-24T07:31:15;3.00;;;2.75;;
48215;SDS011;34005;48.844;10.098;2022-08-24T07:33:43;2.92;;;2.63;;
48215;SDS011;34005;48.844;10.098;2022-08-24T07:36:11;5.80;;;3.05;;
48215;SDS011;34005;48.844;10.098;2022-08-24T07:38:49;4.18;;;3.20;;
48215;SDS011;34005;48.844;10.098;2022-08-24T07:41:18;3.70;;;3.05;;
48215;SDS011;34005;48.844;10.098;2022-08-24T07:44:06;2.97;;;2.67;;
48215;SDS011;34005;48.844;10.098;2022-08-24T07:46:34;10.38;;;3.05;;
48215;SDS011;34005;48.844;10.098;2022-08-24T07:49:03;7.45;;;2.72;;
48215;SDS011;34005;48.844;10.098;2022-08-24T07:51:45;3.45;;;2.30;;
48215;SDS011;34005;48.844;10.098;2022-08-24T07:54:15;5.75;;;2.65;;
48215;SDS011;34005;48.844;10.098;2022-08-24T07:56:42;5.80;;;2.88;;
48215;SDS011;34005;48.844;10.098;2022-08-24T07:59:10;2.80;;;2.60;;
48215;SDS011;34005;48.844;10.098;2022-08-24T08:01:39;4.15;;;2.63;;
48215;SDS011;34005;48.844;10.098;2022-08-24T08:06:58;2.13;;;1.90;;
48215;SDS011;34005;48.844;10.098;2022-08-24T08:13:40;7.32;;;2.83;;
48215;SDS011;34005;48.844;10.098;2022-08-24T08:16:21;10.98;;;3.13;;
48215;SDS011;34005;48.844;10.098;2022-08-24T09:12:59;4.13;;;1.80;;
48215;SDS011;34005;48.844;10.098;2022-08-24T09:18:13;1.73;;;1.45;;
48215;SDS011;34005;48.844;10.098;2022-08-24T09:27:20;2.20;;;2.00;;
48215;SDS011;34005;48.844;10.098;2022-08-24T09:33:15;1.88;;;1.38;;
48215;SDS011;34005;48.844;10.098;2022-08-24T09:36:01;3.95;;;1.10;;
48215;SDS011;34005;48.844;10.098;2022-08-24T09:38:42;1.35;;;1.25;;
48215;SDS011;34005;48.844;10.098;2022-08-24T09:41:26;3.92;;;1.08;;
48215;SDS011;34005;48.844;10.098;2022-08-24T09:44:36;2.00;;;1.10;;
48215;SDS011;34005;48.844;10.098;2022-08-24T10:24:02;1.98;;;1.38;;
48215;SDS011;34005;48.844;10.098;2022-08-24T10:29:46;1.30;;;1.20;;
48215;SDS011;34005;48.844;10.098;2022-08-24T10:32:55;3.08;;;1.40;;
48215;SDS011;34005;48.844;10.098;2022-08-24T10:35:37;2.92;;;1.60;;
48215;SDS011;34005;48.844;10.098;2022-08-24T10:38:30;1.50;;;1.40;;
48215;SDS011;34005;48.844;10.098;2022-08-24T10:41:38;1.65;;;1.20;;
48215;SDS011;34005;48.844;10.098;2022-08-24T10:44:30;1.60;;;1.20;;
48215;SDS011;34005;48.844;10.098;2022-08-24T10:47:10;2.60;;;1.27;;
48215;SDS011;34005;48.844;10.098;2022-08-24T10:52:56;3.13;;;2.00;;
48215;SDS011;34005;48.844;10.098;2022-08-24T10:55:35;1.80;;;1.15;;
48215;SDS011;34005;48.844;10.098;2022-08-24T10:58:12;2.58;;;1.73;;
48215;SDS011;34005;48.844;10.098;2022-08-24T11:00:54;3.38;;;1.80;;
48215;SDS011;34005;48.844;10.098;2022-08-24T11:03:22;1.83;;;1.70;;
48215;SDS011;34005;48.844;10.098;2022-08-24T11:05:54;2.15;;;1.85;;
48215;SDS011;34005;48.844;10.098;2022-08-24T11:08:26;4.97;;;2.00;;
48215;SDS011;34005;48.844;10.098;2022-08-24T11:11:07;1.98;;;1.73;;
48215;SDS011;34005;48.844;10.098;2022-08-24T11:13:48;4.88;;;2.20;;
48215;SDS011;34005;48.844;10.098;2022-08-24T11:16:22;3.45;;;2.15;;
48215;SDS011;34005;48.844;10.098;2022-08-24T11:18:53;7.78;;;2.20;;
48215;SDS011;34005;48.844;10.098;2022-08-24T11:21:43;4.97;;;2.08;;
48215;SDS011;34005;48.844;10.098;2022-08-24T11:24:25;5.20;;;2.13;;
48215;SDS011;34005;48.844;10.098;2022-08-24T11:26:57;2.50;;;1.90;;
48215;SDS011;34005;48.844;10.098;2022-08-24T11:29:53;2.20;;;1.77;;
48215;SDS011;34005;48.844;10.098;2022-08-24T11:32:25;1.95;;;1.70;;
48215;SDS011;34005;48.844;10.098;2022-08-24T11:35:00;3.53;;;1.95;;
48215;SDS011;34005;48.844;10.098;2022-08-24T11:37:30;4.90;;;2.15;;
48215;SDS011;34005;48.844;10.098;2022-08-24T11:40:00;3.83;;;1.73;;
48215;SDS011;34005;48.844;10.098;2022-08-24T11:42:33;1.92;;;1.73;;
48215;SDS011;34005;48.844;10.098;2022-08-24T11:45:11;2.30;;;1.90;;
48215;SDS011;34005;48.844;10.098;2022-08-24T11:47:51;1.92;;;1.60;;
48215;SDS011;34005;48.844;10.098;2022-08-24T11:50:32;2.33;;;1.60;;
48215;SDS011;34005;48.844;10.098;2022-08-24T11:53:08;2.35;;;1.60;;
48215;SDS011;34005;48.844;10.098;2022-08-24T11:55:49;2.45;;;1.75;;
48215;SDS011;34005;48.844;10.098;2022-08-24T11:58:31;2.78;;;1.73;;
48215;SDS011;34005;48.844;10.098;2022-08-24T12:01:11;3.78;;;1.40;;
48215;SDS011;34005;48.844;10.098;2022-08-24T12:03:48;3.25;;;1.70;;
48215;SDS011;34005;48.844;10.098;2022-08-24T12:06:29;2.70;;;1.60;;
48215;SDS011;34005;48.844;10.098;2022-08-24T12:09:12;3.65;;;1.60;;
48215;SDS011;34005;48.844;10.098;2022-08-24T12:11:50;2.33;;;1.63;;
48215;SDS011;34005;48.844;10.098;2022-08-24T12:14:26;2.03;;;1.50;;
48215;SDS011;34005;48.844;10.098;2022-08-24T12:17:02;2.72;;;1.38;;
48215;SDS011;34005;48.844;10.098;2022-08-24T12:19:41;2.88;;;1.45;;
48215;SDS011;34005;48.844;10.098;2022-08-24T12:22:12;1.63;;;1.52;;
48215;SDS011;34005;48.844;10.098;2022-08-24T12:24:43;1.63;;;1.50;;
48215;SDS011;34005;48.844;10.098;2022-08-24T12:27:13;1.70;;;1.60;;
48215;SDS011;34005;48.844;10.098;2022-08-24T12:29:49;4.32;;;1.55;;
48215;SDS011;34005;48.844;10.098;2022-08-24T12:32:25;1.73;;;1.25;;
48215;SDS011;34005;48.844;10.098;2022-08-24T12:35:01;5.07;;;2.00;;
48215;SDS011;34005;48.844;10.098;2022-08-24T12:37:33;1.50;;;1.25;;
48215;SDS011;34005;48.844;10.098;2022-08-24T12:42:38;1.65;;;1.55;;
48215;SDS011;34005;48.844;10.098;2022-08-24T12:45:15;1.23;;;0.98;;
48215;SDS011;34005;48.844;10.098;2022-08-24T12:47:48;1.42;;;1.27;;
48215;SDS011;34005;48.844;10.098;2022-08-24T12:50:21;1.70;;;1.25;;
48215;SDS011;34005;48.844;10.098;2022-08-24T12:53:12;1.63;;;1.38;;
48215;SDS011;34005;48.844;10.098;2022-08-24T12:59:12;1.33;;;1.05;;
48215;SDS011;34005;48.844;10.098;2022-08-24T13:01:46;3.05;;;1.38;;
48215;SDS011;34005;48.844;10.098;2022-08-24T13:04:35;2.03;;;1.38;;
48215;SDS011;34005;48.844;10.098;2022-08-24T13:07:08;4.90;;;1.27;;
48215;SDS011;34005;48.844;10.098;2022-08-24T13:10:03;1.40;;;1.13;;
48215;SDS011;34005;48.844;10.098;2022-08-24T13:12:51;1.95;;;1.30;;
48215;SDS011;34005;48.844;10.098;2022-08-24T13:21:39;4.60;;;1.73;;
48215;SDS011;34005;48.844;10.098;2022-08-24T13:30:20;2.65;;;1.25;;
48215;SDS011;34005;48.844;10.098;2022-08-24T13:32:56;1.02;;;0.93;;
48215;SDS011;34005;48.844;10.098;2022-08-24T13:35:30;4.43;;;0.73;;
48215;SDS011;34005;48.844;10.098;2022-08-24T13:38:23;0.60;;;0.60;;
48215;SDS011;34005;48.844;10.098;2022-08-24T13:40:59;2.03;;;1.02;;
48215;SDS011;34005;48.844;10.098;2022-08-24T13:43:32;2.13;;;0.98;;
48215;SDS011;34005;48.844;10.098;2022-08-24T13:46:08;1.00;;;1.00;;
48215;SDS011;34005;48.844;10.098;2022-08-24T13:48:47;2.53;;;0.90;;
48215;SDS011;34005;48.844;10.098;2022-08-24T13:51:28;1.35;;;1.00;;
48215;SDS011;34005;48.844;10.098;2022-08-24T13:54:09;4.13;;;1.27;;
48215;SDS011;34005;48.844;10.098;2022-08-24T13:56:56;1.10;;;1.00;;
48215;SDS011;34005;48.844;10.098;2022-08-24T13:59:37;2.45;;;1.00;;
48215;SDS011;34005;48.844;10.098;2022-08-24T14:02:23;1.05;;;0.90;;
48215;SDS011;34005;48.844;10.098;2022-08-24T14:05:00;1.63;;;1.52;;
48215;SDS011;34005;48.844;10.098;2022-08-24T14:07:43;4.57;;;1.30;;
48215;SDS011;34005;48.844;10.098;2022-08-24T14:10:25;6.35;;;1.70;;
48215;SDS011;34005;48.844;10.098;2022-08-24T14:13:05;1.58;;;1.33;;
48215;SDS011;34005;48.844;10.098;2022-08-24T14:15:54;2.10;;;1.27;;
48215;SDS011;34005;48.844;10.098;2022-08-24T14:18:43;3.67;;;1.08;;
48215;SDS011;34005;48.844;10.098;2022-08-24T14:21:24;2.25;;;1.25;;
48215;SDS011;34005;48.844;10.098;2022-08-24T14:24:21;1.25;;;1.15;;
48215;SDS011;34005;48.844;10.098;2022-08-24T14:34:06;1.17;;;1.10;;
48215;SDS011;34005;48.844;10.098;2022-08-24T14:36:45;1.00;;;1.00;;
48215;SDS011;34005;48.844;10.098;2022-08-24T14:39:24;1.63;;;1.13;;
48215;SDS011;34005;48.844;10.098;2022-08-24T14:42:06;0.85;;;0.85;;
48215;SDS011;34005;48.844;10.098;2022-08-24T14:55:19;4.03;;;1.30;;
48215;SDS011;34005;48.844;10.098;2022-08-24T14:58:45;1.58;;;1.27;;
48215;SDS011;34005;48.844;10.098;2022-08-24T15:01:27;1.20;;;1.10;;
48215;SDS011;34005;48.844;10.098;2022-08-24T15:04:09;1.90;;;1.33;;
48215;SDS011;34005;48.844;10.098;2022-08-24T15:07:20;2.30;;;1.00;;
48215;SDS011;34005;48.844;10.098;2022-08-24T15:09:54;1.40;;;1.30;;
48215;SDS011;34005;48.844;10.098;2022-08-24T15:12:33;1.23;;;0.95;;
48215;SDS011;34005;48.844;10.098;2022-08-24T15:15:10;1.27;;;1.17;;
48215;SDS011;34005;48.844;10.098;2022-08-24T15:17:41;2.95;;;1.45;;
48215;SDS011;34005;48.844;10.098;2022-08-24T15:20:20;2.05;;;1.30;;
48215;SDS011;34005;48.844;10.098;2022-08-24T15:23:00;1.25;;;1.15;;
48215;SDS011;34005;48.844;10.098;2022-08-24T15:25:35;2.75;;;1.10;;
48215;SDS011;34005;48.844;10.098;2022-08-24T15:28:11;2.05;;;1.35;;
48215;SDS011;34005;48.844;10.098;2022-08-24T15:30:51;2.15;;;1.40;;
48215;SDS011;34005;48.844;10.098;2022-08-24T15:33:21;2.33;;;1.45;;
48215;SDS011;34005;48.844;10.098;2022-08-24T15:35:49;2.30;;;1.35;;
48215;SDS011;34005;48.844;10.098;2022-08-24T15:38:31;3.13;;;1.60;;
48215;SDS011;34005;48.844;10.098;2022-08-24T15:41:02;1.60;;;1.50;;
48215;SDS011;34005;48.844;10.098;2022-08-24T15:43:35;2.13;;;1.50;;
48215;SDS011;34005;48.844;10.098;2022-08-24T15:46:07;2.03;;;1.63;;
48215;SDS011;34005;48.844;10.098;2022-08-24T15:48:35;1.50;;;1.40;;
48215;SDS011;34005;48.844;10.098;2022-08-24T15:51:04;2.22;;;1.55;;
48215;SDS011;34005;48.844;10.098;2022-08-24T15:53:33;1.42;;;1.33;;
48215;SDS011;34005;48.844;10.098;2022-08-24T15:59:06;1.55;;;1.13;;
48215;SDS011;34005;48.844;10.098;2022-08-24T16:01:36;1.35;;;1.25;;
48215;SDS011;34005;48.844;10.098;2022-08-24T16:04:40;3.45;;;1.50;;
48215;SDS011;34005;48.844;10.098;2022-08-24T16:07:14;3.05;;;2.40;;
48215;SDS011;34005;48.844;10.098;2022-08-24T16:09:59;1.92;;;1.33;;
48215;SDS011;34005;48.844;10.098;2022-08-24T16:12:29;1.90;;;1.63;;
48215;SDS011;34005;48.844;10.098;2022-08-24T16:15:08;1.70;;;1.55;;
48215;SDS011;34005;48.844;10.098;2022-08-24T16:17:44;2.95;;;1.38;;
48215;SDS011;34005;48.844;10.098;2022-08-24T16:20:27;2.33;;;1.23;;
48215;SDS011;34005;48.844;10.098;2022-08-24T16:22:58;4.30;;;1.33;;
48215;SDS011;34005;48.844;10.098;2022-08-24T16:25:28;1.45;;;1.30;;
48215;SDS011;34005;48.844;10.098;2022-08-24T16:28:00;1.20;;;1.17;;
48215;SDS011;34005;48.844;10.098;2022-08-24T16:30:48;1.48;;;1.30;;
48215;SDS011;34005;48.844;10.098;2022-08-24T16:36:18;2.33;;;1.17;;
48215;SDS011;34005;48.844;10.098;2022-08-24T16:38:46;1.30;;;1.20;;
48215;SDS011;34005;48.844;10.098;2022-08-24T16:41:16;2.00;;;1.30;;
48215;SDS011;34005;48.844;10.098;2022-08-24T16:43:46;1.20;;;1.10;;
48215;SDS011;34005;48.844;10.098;2022-08-24T16:46:19;1.63;;;1.13;;
48215;SDS011;34005;48.844;10.098;2022-08-24T16:48:48;2.25;;;1.35;;
48215;SDS011;34005;48.844;10.098;2022-08-24T16:51:17;3.13;;;1.38;;
48215;SDS011;34005;48.844;10.098;2022-08-24T16:53:44;1.58;;;1.25;;
48215;SDS011;34005;48.844;10.098;2022-08-24T16:56:12;1.80;;;1.60;;
48215;SDS011;34005;48.844;10.098;2022-08-24T16:58:42;2.15;;;1.45;;
48215;SDS011;34005;48.844;10.098;2022-08-24T17:01:12;1.25;;;1.15;;
48215;SDS011;34005;48.844;10.098;2022-08-24T17:03:42;2.28;;;1.45;;
48215;SDS011;34005;48.844;10.098;2022-08-24T17:06:09;1.20;;;1.17;;
48215;SDS011;34005;48.844;10.098;2022-08-24T17:08:38;5.32;;;1.58;;
48215;SDS011;34005;48.844;10.098;2022-08-24T17:11:06;7.55;;;2.70;;
48215;SDS011;34005;48.844;10.098;2022-08-24T17:13:33;3.50;;;2.17;;
48215;SDS011;34005;48.844;10.098;2022-08-24T17:16:16;4.07;;;1.90;;
48215;SDS011;34005;48.844;10.098;2022-08-24T17:18:46;1.83;;;1.70;;
48215;SDS011;34005;48.844;10.098;2022-08-24T17:21:14;1.75;;;1.50;;
48215;SDS011;34005;48.844;10.098;2022-08-24T17:23:42;2.67;;;1.70;;
48215;SDS011;34005;48.844;10.098;2022-08-24T17:26:10;2.45;;;2.10;;
48215;SDS011;34005;48.844;10.098;2022-08-24T17:28:46;1.63;;;1.52;;
48215;SDS011;34005;48.844;10.098;2022-08-24T17:31:16;3.78;;;2.00;;
48215;SDS011;34005;48.844;10.098;2022-08-24T17:33:44;4.93;;;2.08;;
48215;SDS011;34005;48.844;10.098;2022-08-24T17:36:13;3.72;;;1.65;;
48215;SDS011;34005;48.844;10.098;2022-08-24T17:38:43;1.77;;;1.45;;
48215;SDS011;34005;48.844;10.098;2022-08-24T17:41:20;1.40;;;1.30;;
48215;SDS011;34005;48.844;10.098;2022-08-24T17:43:48;1.63;;;1.52;;
48215;SDS011;34005;48.844;10.098;2022-08-24T17:46:16;1.80;;;1.63;;
48215;SDS011;34005;48.844;10.098;2022-08-24T17:48:45;1.42;;;1.33;;